Sherwood, North Dakota
Current Conditions -  °F | °C
As of 3:58 AM on Friday 21 Nov 2014 (Local Time) from KMIB Reporting Station
Clear Clear  
Wind Chill: 22°   Ceiling: Unl
Heat Index: 22°   Visibility: 10mi
Dew Point: 19°   Wind: 3mph
Humidity: 89%   Direction: 190°S
Pressure: 29.68"   Gusts: NA
Location:  48.96°N, 101.63°W
Report Text: KMIB 210958Z AUTO 19003KT 10SM CLR M06/M07 A2968 RMK AO2 SLP083 T10581073
Loading
Personal Weather Stations






























Interactive Weather Map New forecast layout! Learn more

10-Day Weather Forecast

Advertisements
Track Severe Weather on mobile